Time;durP1;ratioP1;P1;durP2;ratioP2;P2;SDS_P1;SDS_P2;PMS_P1;PMS_P2;Temp;Humidity;BMP_temperature;BMP_pressure;BME280_temperature;BME280_humidity;BME280_pressure;Samples;Min_cycle;Max_cycle;Signal;HPM_P1;HPM_P2
2022/11/25 05:02:36;;;;;;;47.58;20.20;;;;;;;1.16;100.00;100511.44;5556040;32;263514;-93
2022/11/25 05:05:40;;;;;;;49.53;21.48;;;;;;;1.18;100.00;100522.75;5545415;32;33815;-93
2022/11/25 05:08:42;;;;;;;48.15;21.12;;;;;;;1.16;100.00;100540.19;5543851;32;33045;-90
2022/11/25 05:11:46;;;;;;;43.22;20.10;;;;;;;1.12;100.00;100541.09;5544621;32;33814;-90
2022/11/25 05:14:49;;;;;;;45.42;20.90;;;;;;;1.13;100.00;100550.66;5544052;32;33315;-90
2022/11/25 05:17:53;;;;;;;44.17;20.10;;;;;;;1.22;100.00;100552.34;5544007;32;33975;-90
2022/11/25 05:21:03;;;;;;;42.30;19.52;;;;;;;1.15;100.00;100550.66;5542736;32;36091;-90
2022/11/25 05:24:08;;;;;;;42.78;19.30;;;;;;;1.10;100.00;100555.06;5544206;32;33841;-89
2022/11/25 05:27:11;;;;;;;42.40;19.27;;;;;;;1.07;100.00;100569.84;5543904;32;34477;-89
2022/11/25 05:30:14;;;;;;;38.60;17.98;;;;;;;1.09;100.00;100569.84;5544079;32;32388;-89
2022/11/25 05:33:17;;;;;;;39.60;18.35;;;;;;;1.06;100.00;100577.72;5544528;32;34610;-89
2022/11/25 05:36:20;;;;;;;37.70;17.73;;;;;;;1.11;100.00;100575.94;5544533;32;34556;-89
2022/11/25 05:39:25;;;;;;;38.92;17.62;;;;;;;1.45;100.00;100582.63;5543674;32;34699;-89
2022/11/25 05:42:31;;;;;;;35.25;17.20;;;;;;;1.34;100.00;100590.56;5542321;32;33872;-89
2022/11/25 05:45:36;;;;;;;37.60;18.30;;;;;;;1.46;100.00;100595.69;5541960;32;33679;-89
2022/11/25 05:48:40;;;;;;;38.58;18.45;;;;;;;1.32;100.00;100595.81;5542920;32;34106;-89
2022/11/25 05:51:43;;;;;;;34.00;18.25;;;;;;;1.20;100.00;100595.91;5543505;32;34269;-89
2022/11/25 05:54:47;;;;;;;40.25;18.35;;;;;;;1.09;100.00;100600.34;5543874;32;33723;-89
2022/11/25 05:57:54;;;;;;;38.95;19.15;;;;;;;0.96;100.00;100608.28;5543576;32;33492;-90
2022/11/25 06:00:58;;;;;;;33.70;17.40;;;;;;;0.87;100.00;100614.41;5549512;32;34431;-90
2022/11/25 06:04:03;;;;;;;41.00;19.20;;;;;;;0.78;100.00;100622.28;5562535;32;34393;-90
2022/11/25 06:07:06;;;;;;;36.95;19.12;;;;;;;0.68;100.00;100616.25;5549529;32;34265;-89
2022/11/25 06:10:09;;;;;;;39.70;19.67;;;;;;;0.65;100.00;100621.47;5543856;32;34413;-89
2022/11/25 06:13:13;;;;;;;34.20;16.87;;;;;;;0.66;100.00;100625.84;5532674;32;33866;-89
2022/11/25 06:16:20;;;;;;;33.97;16.15;;;;;;;0.80;100.00;100631.84;5530552;32;34148;-89
2022/11/25 06:19:23;;;;;;;36.20;17.92;;;;;;;0.87;100.00;100639.66;5531290;32;33728;-89
2022/11/25 06:22:26;;;;;;;39.08;17.17;;;;;;;0.97;100.00;100650.94;5536638;32;32700;-89
2022/11/25 06:25:30;;;;;;;36.40;18.85;;;;;;;0.73;100.00;100647.56;5544450;32;35592;-89
2022/11/25 06:28:33;;;;;;;34.95;17.30;;;;;;;0.63;100.00;100654.56;5538769;32;34078;-89
2022/11/25 06:31:36;;;;;;;40.10;18.80;;;;;;;0.56;100.00;100658.09;5530369;32;32159;-89
2022/11/25 06:34:41;;;;;;;36.28;18.62;;;;;;;0.56;100.00;100663.31;5533131;32;35282;-89
2022/11/25 06:37:46;;;;;;;38.17;19.10;;;;;;;0.55;100.00;100664.19;5546589;32;33764;-89
2022/11/25 06:40:48;;;;;;;40.10;19.62;;;;;;;0.60;100.00;100655.44;5539007;32;35404;-89
2022/11/25 06:43:51;;;;;;;40.28;19.58;;;;;;;0.73;100.00;100656.28;5532345;32;33457;-89
2022/11/25 06:46:54;;;;;;;42.15;20.60;;;;;;;0.68;100.00;100658.03;5531030;32;34035;-88
2022/11/25 06:49:57;;;;;;;38.30;19.10;;;;;;;0.79;100.00;100657.97;5535316;32;34587;-89
2022/11/25 06:53:01;;;;;;;41.60;20.20;;;;;;;0.83;100.00;100664.94;5537199;32;33646;-89
2022/11/25 06:56:11;;;;;;;45.03;20.80;;;;;;;0.83;100.00;100666.66;5535960;32;32860;-89
2022/11/25 06:59:14;;;;;;;50.87;19.40;;;;;;;0.85;100.00;100673.63;5557315;32;33667;-92
2022/11/25 07:02:17;;;;;;;42.67;20.23;;;;;;;0.87;100.00;100677.13;5557213;32;35167;-92
2022/11/25 07:05:20;;;;;;;47.00;21.10;;;;;;;0.97;100.00;100680.53;5546708;32;34039;-90
2022/11/25 07:08:36;;;;;;;36.80;19.62;;;;;;;1.03;100.00;100688.34;5541658;26;33787;-90
2022/11/25 07:11:42;;;;;;;43.05;20.73;;;;;;;1.12;100.00;100686.56;5497071;32;33238;-89
2022/11/25 07:14:45;;;;;;;43.30;20.60;;;;;;;1.21;100.00;100682.13;5556765;26;34765;-89
2022/11/25 07:17:47;;;;;;;44.55;20.45;;;;;;;1.32;100.00;100694.28;5552331;32;34268;-90
2022/11/25 07:20:50;;;;;;;47.20;20.98;;;;;;;1.43;100.00;100702.03;5554348;32;34385;-89
2022/11/25 07:23:53;;;;;;;42.47;20.67;;;;;;;1.55;100.00;100699.34;5605347;26;34408;-89
2022/11/25 07:26:55;;;;;;;43.90;20.83;;;;;;;1.66;100.00;100699.25;5578245;32;34703;-89
2022/11/25 07:29:58;;;;;;;42.83;20.83;;;;;;;1.81;100.00;100706.12;5561968;32;34458;-89
2022/11/25 07:33:21;;;;;;;44.13;19.98;;;;;;;1.87;100.00;100713.91;5569309;32;34440;-89
2022/11/25 07:36:24;;;;;;;47.05;21.17;;;;;;;1.89;100.00;100706.06;5568478;32;34487;-89
2022/11/25 07:39:26;;;;;;;44.72;21.17;;;;;;;1.95;100.00;100705.13;5569106;32;33895;-89
2022/11/25 07:42:30;;;;;;;47.05;22.13;;;;;;;2.06;100.00;100702.44;5568955;32;33680;-89
2022/11/25 07:45:38;;;;;;;42.55;21.48;;;;;;;2.17;100.00;100710.19;5568905;32;34582;-89
2022/11/25 07:48:44;;;;;;;43.97;21.83;;;;;;;2.27;100.00;100712.69;5554944;32;33145;-90
2022/11/25 07:51:55;;;;;;;39.53;21.17;;;;;;;2.40;100.00;100702.97;5569309;32;34368;-89
2022/11/25 07:54:59;;;;;;;45.83;21.73;;;;;;;2.51;100.00;100700.22;5568597;32;33711;-89
2022/11/25 07:58:02;;;;;;;41.78;21.15;;;;;;;2.63;100.00;100703.59;5568782;32;34042;-89
2022/11/25 08:01:06;;;;;;;42.80;21.00;;;;;;;2.87;100.00;100707.66;5567373;32;35125;-89
2022/11/25 08:04:13;;;;;;;40.70;20.65;;;;;;;2.88;100.00;100706.81;5555065;32;34201;-89
2022/11/25 08:07:21;;;;;;;45.17;21.00;;;;;;;3.00;100.00;100708.41;5558332;32;35097;-90
2022/11/25 08:10:25;;;;;;;40.83;20.67;;;;;;;3.10;100.00;100703.91;5551421;32;33957;-89
2022/11/25 08:13:28;;;;;;;40.28;19.60;;;;;;;3.22;100.00;100711.59;5549970;32;33689;-89
2022/11/25 08:16:31;;;;;;;39.83;20.23;;;;;;;3.37;100.00;100718.37;5581092;31;34182;-89
2022/11/25 08:19:35;;;;;;;36.40;18.90;;;;;;;3.46;100.00;100721.75;5574464;31;34127;-89
2022/11/25 08:22:38;;;;;;;41.10;19.67;;;;;;;3.54;100.00;100717.28;5575672;31;34139;-89
2022/11/25 08:25:42;;;;;;;40.70;19.30;;;;;;;3.87;100.00;100724.66;5566286;32;34237;-89
2022/11/25 08:28:53;;;;;;;37.08;18.42;;;;;;;3.84;100.00;100729.94;5551110;32;33801;-92
2022/11/25 08:31:56;;;;;;;36.78;18.67;;;;;;;3.96;100.00;100723.59;5560290;32;34521;-91
2022/11/25 08:34:59;;;;;;;38.15;19.10;;;;;;;3.98;100.00;100729.72;5566170;32;34135;-88
2022/11/25 08:38:06;;;;;;;40.65;19.02;;;;;;;4.07;100.00;100731.31;5552854;32;33534;-87
2022/11/25 08:41:21;;;;;;;39.50;20.00;;;;;;;4.27;100.00;100729.19;5550695;32;34316;-86
2022/11/25 08:44:27;;;;;;;35.83;18.42;;;;;;;4.23;100.00;100732.78;5536218;32;32589;-87
2022/11/25 08:47:30;;;;;;;36.00;18.98;;;;;;;4.67;100.00;100724.97;5539773;32;33947;-87
2022/11/25 08:50:33;;;;;;;37.35;19.50;;;;;;;4.59;100.00;100735.63;5550142;32;34403;-88
2022/11/25 08:53:38;;;;;;;37.53;20.15;;;;;;;4.58;100.00;100739.16;5555551;32;33862;-87
2022/11/25 08:56:40;;;;;;;35.20;18.90;;;;;;;4.65;100.00;100734.66;5562288;32;34074;-86
2022/11/25 08:59:44;;;;;;;37.25;19.55;;;;;;;4.77;100.00;100725.66;5561211;32;33516;-86
2022/11/25 09:02:47;;;;;;;34.65;18.70;;;;;;;4.79;100.00;100723.88;5565866;32;34142;-87
2022/11/25 09:05:51;;;;;;;35.60;18.42;;;;;;;4.95;100.00;100723.53;5542743;32;33905;-87
2022/11/25 09:09:00;;;;;;;34.15;17.12;;;;;;;6.02;100.00;100722.88;5564393;32;34284;-88
2022/11/25 09:12:04;;;;;;;34.95;17.95;;;;;;;8.73;100.00;100725.28;5573833;32;33361;-88
2022/11/25 09:15:07;;;;;;;29.90;17.12;;;;;;;10.34;100.00;100726.03;5554538;31;33762;-88
2022/11/25 09:18:10;;;;;;;34.08;18.42;;;;;;;12.71;100.00;100725.50;5559454;31;33825;-88
2022/11/25 09:21:16;;;;;;;28.55;16.73;;;;;;;12.42;100.00;100730.53;5547012;32;33660;-87
2022/11/25 09:24:19;;;;;;;29.30;17.35;;;;;;;13.02;76.16;100733.66;5550194;32;33995;-88
2022/11/25 09:27:22;;;;;;;28.75;16.85;;;;;;;12.55;77.02;100736.09;5549236;32;32593;-87
2022/11/25 09:30:25;;;;;;;31.02;16.70;;;;;;;12.97;75.08;100733.88;5555288;32;33679;-87
2022/11/25 09:33:27;;;;;;;27.17;16.40;;;;;;;14.59;67.66;100724.69;5547389;32;33474;-87
2022/11/25 09:36:30;;;;;;;26.62;16.42;;;;;;;15.42;63.97;100730.31;5547557;32;33831;-86
2022/11/25 09:39:34;;;;;;;27.33;16.08;;;;;;;15.53;61.88;100730.47;5556029;32;33876;-87
2022/11/25 09:46:50;;;;;;;29.37;16.05;;;;;;;14.62;67.15;100731.66;5561869;32;35010;-87
2022/11/25 09:50:04;;;;;;;26.40;16.92;;;;;;;12.15;73.81;100730.16;5564182;32;34310;-88
2022/11/25 09:53:13;;;;;;;27.77;15.57;;;;;;;12.45;80.74;100727.72;5549100;32;33856;-87
2022/11/25 09:56:39;;;;;;;25.75;15.95;;;;;;;11.43;79.08;100725.63;5565303;32;33529;-87
2022/11/25 10:00:05;;;;;;;31.00;16.33;;;;;;;10.81;82.87;100713.41;5566335;32;34120;-87
2022/11/25 10:03:14;;;;;;;;;;;;;;;10.57;85.69;100707.41;5569943;32;32818;-87
2022/11/25 10:06:26;;;;;;;29.35;16.17;;;;;;;10.55;86.04;100712.78;5567083;32;36704;-87
2022/11/25 10:09:32;;;;;;;25.23;14.68;;;;;;;10.45;90.39;100706.16;5561802;32;34111;-86
2022/11/25 10:12:43;;;;;;;31.00;16.95;;;;;;;10.86;88.35;100714.06;5557618;32;33890;-87
2022/11/25 10:16:00;;;;;;;27.00;15.57;;;;;;;10.14;91.07;100705.69;5561198;32;34321;-87
2022/11/25 10:19:14;;;;;;;30.48;16.48;;;;;;;10.18;92.67;100712.56;5573659;32;34863;-87
2022/11/25 10:22:36;;;;;;;27.52;16.20;;;;;;;10.62;94.97;100702.78;5567940;32;35321;-87
2022/11/25 10:25:47;;;;;;;26.87;15.85;;;;;;;9.91;90.91;100709.31;5566401;32;32656;-86
2022/11/25 10:29:17;;;;;;;27.45;16.27;;;;;;;10.20;93.59;100709.84;5572189;32;34693;-86
2022/11/25 10:32:26;;;;;;;26.45;16.05;;;;;;;10.54;90.47;100705.75;5560435;32;32462;-86
2022/11/25 10:35:34;;;;;;;29.40;15.75;;;;;;;10.03;91.74;100707.91;5567422;32;35230;-87
2022/11/25 10:39:12;;;;;;;24.70;15.38;;;;;;;10.29;94.87;100698.84;5577335;32;34752;-87
2022/11/25 10:42:20;;;;;;;27.75;15.80;;;;;;;10.35;91.23;100703.00;5554179;32;34078;-86
2022/11/25 10:45:30;;;;;;;27.48;15.82;;;;;;;10.78;96.74;100708.25;5551412;32;34881;-88
2022/11/25 10:49:03;;;;;;;23.95;14.32;;;;;;;11.31;92.18;100713.78;5552787;32;34071;-89
2022/11/25 10:52:11;;;;;;;23.70;15.15;;;;;;;11.23;90.72;100719.47;5558535;32;34386;-88
2022/11/25 10:55:28;;;;;;;26.45;15.05;;;;;;;11.40;86.58;100710.69;5559547;32;33948;-88
2022/11/25 10:58:34;;;;;;;23.98;14.57;;;;;;;11.27;86.17;100712.22;5557567;32;34178;-88
2022/11/25 11:01:37;;;;;;;23.83;14.20;;;;;;;11.34;85.85;100713.66;5559403;32;35105;-88
2022/11/25 11:04:48;;;;;;;23.65;14.35;;;;;;;12.18;82.45;100717.59;5577399;32;34230;-89
2022/11/25 11:08:17;;;;;;;23.58;14.82;;;;;;;12.98;75.07;100719.59;5569706;32;34105;-90
2022/11/25 11:11:22;;;;;;;24.25;14.48;;;;;;;12.34;78.21;100715.00;5549756;32;33571;-89
2022/11/25 11:14:28;;;;;;;21.70;14.07;;;;;;;11.65;81.59;100721.91;5564753;31;33538;-89
2022/11/25 11:17:34;;;;;;;22.83;14.35;;;;;;;11.35;83.70;100720.69;5580406;31;34062;-89
2022/11/25 11:20:45;;;;;;;21.37;13.60;;;;;;;11.39;84.66;100721.37;5583491;31;33857;-89
2022/11/25 11:23:52;;;;;;;23.25;13.25;;;;;;;12.38;78.24;100721.00;5573867;32;35151;-88
2022/11/25 11:27:16;;;;;;;23.40;13.00;;;;;;;12.96;74.17;100723.31;5571987;32;33971;-89
2022/11/25 11:30:22;;;;;;;16.37;10.43;;;;;;;12.29;76.54;100727.66;5556563;32;33993;-88
2022/11/25 11:33:47;;;;;;;23.25;12.43;;;;;;;11.63;80.21;100724.69;5574746;32;34370;-88
2022/11/25 11:37:09;;;;;;;12.18;7.97;;;;;;;11.21;83.17;100723.97;5560890;32;33093;-89
2022/11/25 11:40:38;;;;;;;14.73;9.48;;;;;;;10.74;87.80;100719.94;5551604;32;33832;-93
2022/11/25 11:43:55;;;;;;;22.77;12.88;;;;;;;10.76;87.14;100723.38;5597580;26;34159;-89
2022/11/25 11:47:43;;;;;;;26.25;13.98;;;;;;;10.50;86.75;100707.69;5599120;31;34570;-89
2022/11/25 11:50:59;;;;;;;27.60;14.93;;;;;;;10.54;88.08;100708.41;5588809;31;34077;-89
2022/11/25 11:54:16;;;;;;;28.10;17.45;;;;;;;10.46;89.68;100708.75;5594409;31;33900;-87
2022/11/25 11:57:42;;;;;;;38.30;20.45;;;;;;;10.10;90.45;100717.31;5593150;31;34716;-86
2022/11/25 12:00:57;;;;;;;34.08;20.50;;;;;;;10.22;89.81;100722.09;5590900;31;34205;-87
2022/11/25 12:04:15;;;;;;;37.28;20.12;;;;;;;9.95;90.77;100722.34;5594452;31;35228;-89
2022/11/25 12:07:51;;;;;;;35.28;19.37;;;;;;;9.86;93.78;100720.06;5583801;31;35219;-88
2022/11/25 12:11:03;;;;;;;33.08;18.35;;;;;;;9.88;92.84;100718.25;5586134;31;33796;-88
2022/11/25 12:14:18;;;;;;;34.40;18.55;;;;;;;10.07;91.11;100722.78;5582679;31;34082;-88
2022/11/25 12:17:33;;;;;;;30.50;16.90;;;;;;;10.08;91.38;100724.50;5589912;31;33750;-88
2022/11/25 12:20:51;;;;;;;23.62;14.60;;;;;;;9.89;93.07;100729.69;5585831;31;34581;-88
2022/11/25 12:24:05;;;;;;;27.42;15.40;;;;;;;10.09;92.45;100718.25;5588841;31;34270;-90
2022/11/25 12:34:26;;;;;;;26.10;14.23;;;;;;;9.70;96.16;100718.06;5579199;31;32436;-89
2022/11/25 12:38:13;;;;;;;29.08;15.82;;;;;;;9.74;96.77;100724.09;5568518;32;33768;-89
2022/11/25 12:41:29;;;;;;;20.55;11.88;;;;;;;9.68;96.12;100719.94;5567419;32;32647;-89
2022/11/25 12:44:56;;;;;;;22.80;12.48;;;;;;;9.16;100.00;100709.59;5566480;32;33063;-89
2022/11/25 12:48:00;;;;;;;20.48;11.93;;;;;;;9.22;100.00;100716.44;5568568;31;32149;-89
2022/11/25 12:51:15;;;;;;;20.17;12.43;;;;;;;9.01;100.00;100708.41;5598488;31;32713;-89
2022/11/25 12:54:49;;;;;;;19.75;12.48;;;;;;;9.08;100.00;100706.38;5591904;31;32297;-89
2022/11/25 12:58:06;;;;;;;20.58;12.20;;;;;;;9.00;100.00;100704.03;5573157;31;32698;-92
2022/11/25 13:01:28;;;;;;;21.12;12.32;;;;;;;8.77;100.00;100706.59;5588651;31;34911;-89
2022/11/25 13:04:39;;;;;;;22.17;12.75;;;;;;;8.76;100.00;100702.22;5587898;31;36004;-88
2022/11/25 13:08:02;;;;;;;19.70;12.13;;;;;;;8.68;100.00;100706.06;5586204;31;34576;-89
2022/11/25 13:11:42;;;;;;;21.87;11.12;;;;;;;8.70;100.00;100709.53;5584868;31;33890;-89
2022/11/25 13:15:20;;;;;;;19.98;10.40;;;;;;;8.59;100.00;100710.78;5586480;31;34546;-89
2022/11/25 13:18:29;;;;;;;19.05;10.57;;;;;;;8.49;100.00;100709.34;5582233;31;32414;-89
2022/11/25 13:21:32;;;;;;;17.35;10.35;;;;;;;8.61;100.00;100702.81;5598724;31;34735;-88
2022/11/25 13:24:40;;;;;;;14.50;9.80;;;;;;;8.56;100.00;100708.25;5594400;31;33747;-89
2022/11/25 13:27:43;;;;;;;17.33;9.00;;;;;;;8.37;100.00;100702.72;5575622;31;33968;-93
2022/11/25 13:30:50;;;;;;;18.08;9.13;;;;;;;8.43;100.00;100705.16;5590471;31;35193;-93
2022/11/25 13:33:56;;;;;;;15.50;9.68;;;;;;;8.28;100.00;100709.19;5588406;31;32653;-90
2022/11/25 13:37:01;;;;;;;16.40;9.13;;;;;;;8.31;100.00;100709.06;5571098;31;31867;-90
2022/11/25 13:40:29;;;;;;;17.02;9.35;;;;;;;8.27;100.00;100712.78;5581402;31;32502;-89
2022/11/25 13:43:31;;;;;;;16.10;9.60;;;;;;;8.19;100.00;100717.44;5584471;31;32699;-89
2022/11/25 13:46:42;;;;;;;18.02;10.20;;;;;;;8.17;100.00;100722.78;5583831;31;32714;-87
2022/11/25 13:49:55;;;;;;;18.60;10.40;;;;;;;8.18;100.00;100719.22;5569464;32;33076;-88
2022/11/25 13:53:17;;;;;;;18.37;10.38;;;;;;;8.22;100.00;100723.50;5590237;31;34581;-87
2022/11/25 13:56:19;;;;;;;19.48;10.82;;;;;;;8.19;100.00;100730.66;5580205;31;33878;-88
2022/11/25 13:59:35;;;;;;;17.65;9.88;;;;;;;8.11;100.00;100730.06;5583089;31;34432;-88
2022/11/25 14:02:45;;;;;;;18.17;10.02;;;;;;;8.05;100.00;100737.28;5576690;31;32673;-87
2022/11/25 14:06:27;;;;;;;22.62;11.25;;;;;;;7.93;100.00;100735.03;5571746;32;33422;-87
2022/11/25 14:09:43;;;;;;;18.15;10.60;;;;;;;7.92;100.00;100741.22;5576400;32;32954;-88
2022/11/25 14:13:12;;;;;;;23.95;12.02;;;;;;;7.92;100.00;100752.69;5581713;32;33637;-89
2022/11/25 14:16:24;;;;;;;21.98;11.38;;;;;;;7.91;100.00;100748.28;5597107;31;34086;-88
2022/11/25 14:20:05;;;;;;;19.75;11.25;;;;;;;7.90;100.00;100756.28;5602850;31;34249;-88
2022/11/25 14:23:25;;;;;;;19.70;11.93;;;;;;;7.99;100.00;100757.75;5604902;31;35062;-87
2022/11/25 14:26:34;;;;;;;19.10;11.32;;;;;;;7.80;100.00;100761.84;5602242;31;34018;-86
2022/11/25 14:29:58;;;;;;;19.58;12.13;;;;;;;7.69;100.00;100756.91;5593112;31;34389;-87
2022/11/25 14:33:05;;;;;;;21.12;11.45;;;;;;;7.57;100.00;100751.12;5587615;31;32493;-87
2022/11/25 14:36:12;;;;;;;19.27;11.23;;;;;;;7.35;100.00;100757.94;5587850;31;34034;-87
2022/11/25 14:39:36;;;;;;;21.35;12.10;;;;;;;7.26;100.00;100753.81;5590330;31;34082;-87
2022/11/25 14:42:44;;;;;;;21.77;12.18;;;;;;;7.14;100.00;100755.03;5588435;31;33180;-88
2022/11/25 14:46:09;;;;;;;23.73;13.13;;;;;;;7.07;100.00;100755.25;5588750;31;33846;-88
2022/11/25 14:49:12;;;;;;;22.20;12.95;;;;;;;7.01;100.00;100751.03;5588306;31;32657;-88
2022/11/25 14:52:35;;;;;;;19.70;12.27;;;;;;;6.97;100.00;100754.66;5587852;31;32684;-88
2022/11/25 14:55:38;;;;;;;25.05;13.30;;;;;;;6.90;100.00;100764.53;5588569;31;32686;-89
2022/11/25 14:58:46;;;;;;;26.77;13.82;;;;;;;6.84;100.00;100765.56;5589012;31;34307;-88
2022/11/25 15:01:52;;;;;;;28.83;14.32;;;;;;;6.84;100.00;100767.34;5589235;31;35258;-88
2022/11/25 15:05:17;;;;;;;26.52;13.70;;;;;;;6.77;100.00;100761.38;5590247;31;34330;-88
2022/11/25 15:08:20;;;;;;;26.48;14.07;;;;;;;6.68;100.00;100764.28;5560721;31;33276;-88
2022/11/25 15:11:27;;;;;;;24.98;14.23;;;;;;;6.61;100.00;100766.19;5588341;31;34471;-88
2022/11/25 15:14:37;;;;;;;26.65;14.40;;;;;;;6.55;100.00;100764.56;5594987;31;34543;-88
2022/11/25 15:17:40;;;;;;;25.15;14.00;;;;;;;6.52;100.00;100766.44;5599555;31;34030;-88
2022/11/25 15:20:46;;;;;;;24.15;13.95;;;;;;;6.56;100.00;100768.97;5587872;31;33580;-87
2022/11/25 15:23:49;;;;;;;24.05;13.82;;;;;;;6.60;100.00;100767.97;5587162;31;34790;-88
2022/11/25 15:26:58;;;;;;;19.95;13.02;;;;;;;6.54;100.00;100772.53;5590672;31;33925;-88
2022/11/25 15:30:00;;;;;;;23.35;13.52;;;;;;;6.53;100.00;100774.31;5600033;31;34120;-88
2022/11/25 15:33:05;;;;;;;23.62;13.40;;;;;;;6.50;100.00;100771.75;5593789;31;34035;-88
2022/11/25 15:36:08;;;;;;;24.05;13.23;;;;;;;6.52;100.00;100772.56;5602980;31;33342;-88
2022/11/25 15:39:18;;;;;;;25.98;14.07;;;;;;;6.50;100.00;100777.03;5590554;31;32487;-88
2022/11/25 15:42:25;;;;;;;24.80;13.25;;;;;;;6.48;100.00;100781.47;5587054;31;32770;-92
2022/11/25 15:45:36;;;;;;;23.87;13.40;;;;;;;6.41;100.00;100783.41;5585975;31;33652;-89
2022/11/25 15:48:43;;;;;;;;;;;;;;;6.42;100.00;100782.50;5576225;31;33973;-89
2022/11/25 15:52:04;;;;;;;23.62;13.20;;;;;;;6.33;100.00;100788.00;5588074;31;34267;-88
2022/11/25 15:55:19;;;;;;;25.55;15.43;;;;;;;6.39;100.00;100793.09;5587555;31;33855;-89
2022/11/25 15:58:23;;;;;;;35.22;18.52;;;;;;;6.19;100.00;100789.22;5587604;31;34531;-89
2022/11/25 16:01:28;;;;;;;39.22;19.73;;;;;;;6.20;100.00;100798.84;5586683;31;34454;-89
2022/11/25 16:04:31;;;;;;;38.28;21.12;;;;;;;6.14;100.00;100796.34;5583357;31;34367;-89
2022/11/25 16:07:34;;;;;;;50.30;24.92;;;;;;;5.99;100.00;100796.72;5574159;31;34450;-88
2022/11/25 16:10:40;;;;;;;49.83;24.48;;;;;;;5.91;100.00;100800.41;5569833;31;33543;-89
2022/11/25 16:13:44;;;;;;;46.85;24.20;;;;;;;6.04;100.00;100794.88;5599651;31;32312;-89
2022/11/25 16:16:47;;;;;;;50.15;25.37;;;;;;;5.84;100.00;100800.56;5594548;31;33828;-89
2022/11/25 16:19:49;;;;;;;50.20;25.45;;;;;;;5.86;100.00;100804.91;5588528;31;33569;-88
2022/11/25 16:22:52;;;;;;;55.67;27.83;;;;;;;5.66;100.00;100806.22;5586503;31;33409;-88
2022/11/25 16:26:00;;;;;;;52.60;27.33;;;;;;;5.61;100.00;100794.03;5586111;31;32801;-89
2022/11/25 16:29:17;;;;;;;55.15;27.85;;;;;;;5.43;100.00;100801.44;5587899;31;34830;-88
2022/11/25 16:32:23;;;;;;;49.55;27.05;;;;;;;5.34;100.00;100805.12;5586324;31;33500;-88
2022/11/25 16:35:26;;;;;;;53.47;28.33;;;;;;;5.26;100.00;100818.47;5587103;31;32923;-88
2022/11/25 16:38:29;;;;;;;52.45;26.80;;;;;;;5.09;100.00;100818.78;5666287;26;34538;-88
2022/11/25 16:41:32;;;;;;;57.47;27.40;;;;;;;4.99;100.00;100819.87;5554423;32;32972;-88
2022/11/25 16:44:36;;;;;;;56.20;28.33;;;;;;;4.92;100.00;100824.38;5553719;32;32823;-87
